createdAt,value
2018-11-25T00:00:53.674Z,1008.48
2018-11-25T00:01:53.686Z,1008.45
2018-11-25T00:03:53.716Z,1008.47
2018-11-25T00:04:53.735Z,1008.46
2018-11-25T00:05:53.746Z,1008.48
2018-11-25T00:06:53.765Z,1008.47
2018-11-25T00:07:53.775Z,1008.48
2018-11-25T00:08:53.789Z,1008.47
2018-11-25T00:09:53.805Z,1008.47
2018-11-25T00:10:53.820Z,1008.46
2018-11-25T00:11:53.834Z,1008.46
2018-11-25T00:12:53.849Z,1008.48
2018-11-25T00:13:53.863Z,1008.45
2018-11-25T00:14:53.879Z,1008.43
2018-11-25T00:15:53.894Z,1008.39
2018-11-25T00:16:53.912Z,1008.42
2018-11-25T00:18:53.939Z,1008.45
2018-11-25T00:19:53.953Z,1008.43
2018-11-25T00:20:53.968Z,1008.41
2018-11-25T00:21:53.982Z,1008.41
2018-11-25T00:22:53.996Z,1008.41
2018-11-25T00:23:54.010Z,1008.4
2018-11-25T00:24:54.026Z,1008.39
2018-11-25T00:25:54.041Z,1008.35
2018-11-25T00:26:54.055Z,1008.38
2018-11-25T00:27:54.070Z,1008.33
2018-11-25T00:28:54.085Z,1008.34
2018-11-25T00:29:54.100Z,1008.31
2018-11-25T00:30:54.114Z,1008.34
2018-11-25T00:31:54.128Z,1008.32
2018-11-25T00:32:54.143Z,1008.28
2018-11-25T00:33:54.159Z,1008.31
2018-11-25T00:34:54.173Z,1008.28
2018-11-25T00:35:54.188Z,1008.29
2018-11-25T00:36:54.205Z,1008.27
2018-11-25T00:37:54.217Z,1008.27
2018-11-25T00:38:54.235Z,1008.25
2018-11-25T00:39:54.246Z,1008.28
2018-11-25T00:40:54.262Z,1008.27
2018-11-25T00:41:54.274Z,1008.22
2018-11-25T00:42:54.291Z,1008.21
2018-11-25T00:43:54.306Z,1008.2
2018-11-25T00:44:54.321Z,1008.21
2018-11-25T00:45:54.336Z,1008.17
2018-11-25T00:46:54.350Z,1008.2
2018-11-25T00:47:54.365Z,1008.22
2018-11-25T00:48:54.378Z,1008.19
2018-11-25T00:50:54.407Z,1008.19
2018-11-25T00:51:54.423Z,1008.18
2018-11-25T00:52:54.436Z,1008.17
2018-11-25T00:53:54.452Z,1008.13
2018-11-25T00:54:54.467Z,1008.12
2018-11-25T00:55:54.482Z,1008.13
2018-11-25T00:56:54.496Z,1008.12
2018-11-25T00:57:54.511Z,1008.09
2018-11-25T00:58:54.526Z,1008.06
2018-11-25T00:59:54.540Z,1008.07
2018-11-25T01:00:54.560Z,1008.09
2018-11-25T01:01:54.569Z,1008.04
2018-11-25T01:02:54.584Z,1008.09
2018-11-25T01:03:54.597Z,1008.07
2018-11-25T01:04:54.616Z,1008.04
2018-11-25T01:06:54.644Z,1008.01
2018-11-25T01:07:54.657Z,1008.02
2018-11-25T01:08:54.671Z,1008.04
2018-11-25T01:09:54.687Z,1008.05
2018-11-25T01:10:54.705Z,1008.01
2018-11-25T01:11:54.715Z,1008.05
2018-11-25T01:12:54.729Z,1008.06
2018-11-25T01:13:54.745Z,1008.06
2018-11-25T01:14:54.759Z,1008.02
2018-11-25T01:15:54.773Z,1008.02
2018-11-25T01:16:54.787Z,1008.07
2018-11-25T01:17:54.804Z,1008.05
2018-11-25T01:18:54.818Z,1008.05
2018-11-25T01:19:54.832Z,1008.05
2018-11-25T01:20:54.847Z,1008.03
2018-11-25T01:22:54.874Z,1008.1
2018-11-25T01:23:54.891Z,1008.08
2018-11-25T01:24:54.906Z,1008.07
2018-11-25T01:25:54.921Z,1008.07
2018-11-25T01:26:54.934Z,1008.04
2018-11-25T01:27:54.949Z,1008.08
2018-11-25T01:28:54.966Z,1008.08
2018-11-25T01:29:54.979Z,1008.13
2018-11-25T01:30:54.993Z,1008.16
2018-11-25T01:31:55.008Z,1008.11
2018-11-25T01:32:55.021Z,1008.14
2018-11-25T01:33:55.042Z,1008.15
2018-11-25T01:35:00.843Z,1008.14
2018-11-25T01:35:55.066Z,1008.13
2018-11-25T01:36:55.082Z,1008.15
2018-11-25T01:38:55.109Z,1008.13
2018-11-25T01:39:55.125Z,1008.17
2018-11-25T01:40:55.138Z,1008.18
2018-11-25T01:41:55.154Z,1008.16
2018-11-25T01:42:55.167Z,1008.14
2018-11-25T01:43:55.182Z,1008.14
2018-11-25T01:44:55.197Z,1008.16
2018-11-25T01:45:55.211Z,1008.13
2018-11-25T01:46:55.278Z,1008.11
2018-11-25T01:47:55.240Z,1008.1
2018-11-25T01:48:55.254Z,1008.08
2018-11-25T01:49:55.270Z,1008.08
2018-11-25T01:50:55.285Z,1008.07
2018-11-25T01:51:55.301Z,1008.07
2018-11-25T01:53:55.330Z,1008.07
2018-11-25T01:54:55.345Z,1008.1
2018-11-25T01:55:55.358Z,1008.11
2018-11-25T01:56:55.374Z,1008.09
2018-11-25T01:57:55.389Z,1008.11
2018-11-25T01:58:55.406Z,1008.08
2018-11-25T01:59:55.418Z,1008.12
2018-11-25T02:00:55.432Z,1008.1
2018-11-25T02:01:55.450Z,1008.09
2018-11-25T02:02:55.465Z,1008.07
2018-11-25T02:03:55.476Z,1008.07
2018-11-25T02:04:55.490Z,1008.08
2018-11-25T02:05:55.506Z,1008.08
2018-11-25T02:06:55.520Z,1008.07
2018-11-25T02:07:55.535Z,1008.05
2018-11-25T02:08:55.551Z,1008.06
2018-11-25T02:09:55.564Z,1008.02
2018-11-25T02:10:55.580Z,1008.01
2018-11-25T02:11:55.594Z,1007.97
2018-11-25T02:12:55.609Z,1007.96
2018-11-25T02:13:55.623Z,1007.95
2018-11-25T02:14:55.638Z,1007.95
2018-11-25T02:15:55.653Z,1007.96
2018-11-25T02:16:55.667Z,1007.94
2018-11-25T02:17:55.682Z,1007.99
2018-11-25T02:18:55.698Z,1007.97
2018-11-25T02:19:55.712Z,1007.95
2018-11-25T02:20:55.726Z,1007.95
2018-11-25T02:21:55.741Z,1007.94
2018-11-25T02:22:55.761Z,1007.91
2018-11-25T02:23:55.770Z,1007.87
2018-11-25T02:25:55.801Z,1007.83
2018-11-25T02:26:55.815Z,1007.78
2018-11-25T02:27:55.829Z,1007.78
2018-11-25T02:28:55.844Z,1007.78
2018-11-25T02:29:55.859Z,1007.85
2018-11-25T02:30:55.876Z,1007.86
2018-11-25T02:31:55.887Z,1007.84
2018-11-25T02:32:55.904Z,1007.83
2018-11-25T02:33:55.918Z,1007.87
2018-11-25T02:34:55.932Z,1007.84
2018-11-25T02:35:55.947Z,1007.88
2018-11-25T02:36:55.962Z,1007.9
2018-11-25T02:37:55.980Z,1007.91
2018-11-25T02:38:55.991Z,1007.97
2018-11-25T02:39:56.005Z,1007.9
2018-11-25T02:41:56.035Z,1007.9
2018-11-25T02:42:56.048Z,1007.93
2018-11-25T02:43:56.065Z,1007.92
2018-11-25T02:44:56.081Z,1007.88
2018-11-25T02:45:56.093Z,1007.93
2018-11-25T02:46:56.108Z,1007.9
2018-11-25T02:47:56.124Z,1007.88
2018-11-25T02:48:56.139Z,1007.89
2018-11-25T02:49:56.152Z,1007.91
2018-11-25T02:50:56.168Z,1007.98
2018-11-25T02:51:56.183Z,1007.94
2018-11-25T02:52:56.198Z,1007.93
2018-11-25T02:53:56.210Z,1007.93
2018-11-25T02:54:56.227Z,1007.94
2018-11-25T02:55:56.241Z,1007.88
2018-11-25T02:57:56.271Z,1007.84
2018-11-25T02:58:56.284Z,1007.85
2018-11-25T02:59:56.301Z,1007.82
2018-11-25T03:00:56.315Z,1007.79
2018-11-25T03:01:56.330Z,1007.77
2018-11-25T03:02:56.345Z,1007.73
2018-11-25T03:03:56.358Z,1007.69
2018-11-25T03:04:56.373Z,1007.66
2018-11-25T03:05:56.386Z,1007.63
2018-11-25T03:06:56.403Z,1007.52
2018-11-25T03:07:56.516Z,1007.45
2018-11-25T03:08:56.431Z,1007.39
2018-11-25T03:09:56.447Z,1007.39
2018-11-25T03:10:56.462Z,1007.45
2018-11-25T03:11:56.476Z,1007.5
2018-11-25T03:13:56.505Z,1007.54
2018-11-25T03:14:56.520Z,1007.56
2018-11-25T03:15:56.535Z,1007.56
2018-11-25T03:16:56.550Z,1007.54
2018-11-25T03:17:56.565Z,1007.53
2018-11-25T03:18:56.679Z,1007.5
2018-11-25T03:19:56.593Z,1007.54
2018-11-25T03:20:56.608Z,1007.53
2018-11-25T03:21:56.623Z,1007.54
2018-11-25T03:22:56.637Z,1007.6
2018-11-25T03:23:56.652Z,1007.61
2018-11-25T03:24:56.667Z,1007.57
2018-11-25T03:25:56.681Z,1007.55
2018-11-25T03:26:56.697Z,1007.61
2018-11-25T03:28:56.726Z,1007.6
2018-11-25T03:29:56.741Z,1007.63
2018-11-25T03:30:56.755Z,1007.62
2018-11-25T03:31:56.770Z,1007.61
2018-11-25T03:32:56.784Z,1007.67
2018-11-25T03:33:56.797Z,1007.66
2018-11-25T03:34:56.813Z,1007.7
2018-11-25T03:35:56.829Z,1007.7
2018-11-25T03:36:56.844Z,1007.65
2018-11-25T03:37:56.857Z,1007.64
2018-11-25T03:38:56.871Z,1007.63
2018-11-25T03:39:56.887Z,1007.63
2018-11-25T03:40:56.901Z,1007.59
2018-11-25T03:41:56.916Z,1007.67
2018-11-25T03:42:56.932Z,1007.63
2018-11-25T03:43:56.947Z,1007.67
2018-11-25T03:44:56.961Z,1007.64
2018-11-25T03:45:56.975Z,1007.64
2018-11-25T03:46:56.991Z,1007.64
2018-11-25T03:47:57.005Z,1007.62
2018-11-25T03:48:57.020Z,1007.64
2018-11-25T03:49:57.038Z,1007.64
2018-11-25T03:50:57.050Z,1007.62
2018-11-25T03:51:57.063Z,1007.62
2018-11-25T03:52:57.082Z,1007.63
2018-11-25T03:53:57.094Z,1007.61
2018-11-25T03:54:57.109Z,1007.61
2018-11-25T03:55:57.123Z,1007.62
2018-11-25T03:56:57.137Z,1007.64
2018-11-25T03:57:57.152Z,1007.6
2018-11-25T03:58:57.166Z,1007.54
2018-11-25T04:00:57.197Z,1007.56
2018-11-25T04:01:57.211Z,1007.56
2018-11-25T04:02:57.224Z,1007.63
2018-11-25T04:03:57.241Z,1007.58
2018-11-25T04:04:57.254Z,1007.58
2018-11-25T04:05:57.270Z,1007.53
2018-11-25T04:06:57.283Z,1007.51
2018-11-25T04:07:57.300Z,1007.5
2018-11-25T04:08:57.314Z,1007.49
2018-11-25T04:09:57.338Z,1007.49
2018-11-25T04:10:57.342Z,1007.49
2018-11-25T04:11:57.358Z,1007.5
2018-11-25T04:12:57.374Z,1007.51
2018-11-25T04:13:57.388Z,1007.46
2018-11-25T04:14:57.402Z,1007.48
2018-11-25T04:16:57.430Z,1007.43
2018-11-25T04:17:57.445Z,1007.44
2018-11-25T04:18:57.460Z,1007.53
2018-11-25T04:19:57.475Z,1007.52
2018-11-25T04:20:57.487Z,1007.53
2018-11-25T04:21:57.504Z,1007.54
2018-11-25T04:22:57.518Z,1007.51
2018-11-25T04:23:57.539Z,1007.54
2018-11-25T04:24:57.548Z,1007.55
2018-11-25T04:25:57.563Z,1007.53
2018-11-25T04:26:57.577Z,1007.54
2018-11-25T04:27:57.596Z,1007.53
2018-11-25T04:28:57.606Z,1007.49
2018-11-25T04:29:57.624Z,1007.47
2018-11-25T04:30:57.636Z,1007.43
2018-11-25T04:32:57.665Z,1007.44
2018-11-25T04:33:57.679Z,1007.4
2018-11-25T04:34:57.695Z,1007.42
2018-11-25T04:35:57.707Z,1007.38
2018-11-25T04:36:57.723Z,1007.4
2018-11-25T04:37:57.738Z,1007.39
2018-11-25T04:38:57.753Z,1007.4
2018-11-25T04:39:57.770Z,1007.35
2018-11-25T04:40:57.782Z,1007.32
2018-11-25T04:41:57.797Z,1007.3
2018-11-25T04:42:57.810Z,1007.26
2018-11-25T04:43:57.826Z,1007.28
2018-11-25T04:44:57.841Z,1007.24
2018-11-25T04:45:57.856Z,1007.26
2018-11-25T04:46:57.870Z,1007.27
2018-11-25T04:48:57.899Z,1007.29
2018-11-25T04:49:57.915Z,1007.28
2018-11-25T04:50:57.932Z,1007.29
2018-11-25T04:51:57.944Z,1007.26
2018-11-25T04:52:57.963Z,1007.3
2018-11-25T04:53:57.973Z,1007.32
2018-11-25T04:54:57.987Z,1007.31
2018-11-25T04:55:58.004Z,1007.36
2018-11-25T04:56:58.017Z,1007.34
2018-11-25T04:57:58.032Z,1007.33
2018-11-25T04:58:58.047Z,1007.32
2018-11-25T04:59:58.062Z,1007.32
2018-11-25T05:00:58.075Z,1007.4
2018-11-25T05:01:58.092Z,1007.4
2018-11-25T05:03:58.122Z,1007.37
2018-11-25T05:04:58.137Z,1007.35
2018-11-25T05:05:58.151Z,1007.34
2018-11-25T05:06:58.167Z,1007.35
2018-11-25T05:07:58.180Z,1007.32
2018-11-25T05:08:58.195Z,1007.29
2018-11-25T05:09:58.209Z,1007.29
2018-11-25T05:10:58.223Z,1007.32
2018-11-25T05:11:58.239Z,1007.3
2018-11-25T05:12:58.254Z,1007.32
2018-11-25T05:13:58.269Z,1007.31
2018-11-25T05:14:58.285Z,1007.35
2018-11-25T05:15:58.298Z,1007.36
2018-11-25T05:16:58.314Z,1007.35
2018-11-25T05:17:58.328Z,1007.34
2018-11-25T05:18:58.343Z,1007.33
2018-11-25T05:19:58.357Z,1007.32
2018-11-25T05:20:58.373Z,1007.27
2018-11-25T05:21:58.386Z,1007.32
2018-11-25T05:22:58.402Z,1007.29
2018-11-25T05:23:58.417Z,1007.32
2018-11-25T05:24:58.433Z,1007.33
2018-11-25T05:25:58.447Z,1007.32
2018-11-25T05:26:58.460Z,1007.32
2018-11-25T05:27:58.475Z,1007.31
2018-11-25T05:28:58.489Z,1007.34
2018-11-25T05:29:58.510Z,1007.32
2018-11-25T05:30:58.523Z,1007.32
2018-11-25T05:31:58.535Z,1007.3
2018-11-25T05:32:58.555Z,1007.29
2018-11-25T05:33:58.564Z,1007.28
2018-11-25T05:35:58.593Z,1007.32
2018-11-25T05:36:58.612Z,1007.31
2018-11-25T05:37:58.623Z,1007.34
2018-11-25T05:38:58.641Z,1007.34
2018-11-25T05:39:58.652Z,1007.31
2018-11-25T05:40:58.669Z,1007.3
2018-11-25T05:41:58.683Z,1007.35
2018-11-25T05:42:58.698Z,1007.29
2018-11-25T05:43:58.713Z,1007.29
2018-11-25T05:44:58.727Z,1007.3
2018-11-25T05:45:58.742Z,1007.31
2018-11-25T05:46:58.757Z,1007.31
2018-11-25T05:47:58.772Z,1007.34
2018-11-25T05:48:58.788Z,1007.32
2018-11-25T05:49:58.800Z,1007.31
2018-11-25T05:51:58.832Z,1007.32
2018-11-25T05:52:58.844Z,1007.28
2018-11-25T05:53:58.860Z,1007.32
2018-11-25T05:54:58.875Z,1007.28
2018-11-25T05:55:58.890Z,1007.31
2018-11-25T05:56:58.903Z,1007.29
2018-11-25T05:57:58.919Z,1007.29
2018-11-25T05:58:58.937Z,1007.3
2018-11-25T05:59:58.949Z,1007.31
2018-11-25T06:00:58.965Z,1007.3
2018-11-25T06:01:58.978Z,1007.29
2018-11-25T06:02:58.995Z,1007.28
2018-11-25T06:03:59.009Z,1007.31
2018-11-25T06:04:59.027Z,1007.34
2018-11-25T06:05:59.040Z,1007.41
2018-11-25T06:07:59.068Z,1007.39
2018-11-25T06:08:59.083Z,1007.4
2018-11-25T06:09:59.098Z,1007.44
2018-11-25T06:10:59.111Z,1007.4
2018-11-25T06:11:59.128Z,1007.45
2018-11-25T06:12:59.142Z,1007.45
2018-11-25T06:13:59.157Z,1007.4
2018-11-25T06:14:59.169Z,1007.44
2018-11-25T06:15:59.186Z,1007.44
2018-11-25T06:16:59.202Z,1007.43
2018-11-25T06:17:59.215Z,1007.41
2018-11-25T06:18:59.231Z,1007.39
2018-11-25T06:19:59.246Z,1007.39
2018-11-25T06:20:59.261Z,1007.35
2018-11-25T06:21:59.273Z,1007.31
2018-11-25T06:23:59.305Z,1007.33
2018-11-25T06:24:59.320Z,1007.33
2018-11-25T06:25:59.335Z,1007.34
2018-11-25T06:26:59.351Z,1007.37
2018-11-25T06:27:59.364Z,1007.35
2018-11-25T06:28:59.377Z,1007.36
2018-11-25T06:29:59.393Z,1007.33
2018-11-25T06:30:59.408Z,1007.33
2018-11-25T06:31:59.423Z,1007.35
2018-11-25T06:32:59.438Z,1007.33
2018-11-25T06:33:59.453Z,1007.37
2018-11-25T06:34:59.468Z,1007.35
2018-11-25T06:35:59.483Z,1007.35
2018-11-25T06:36:59.507Z,1007.41
2018-11-25T06:38:59.528Z,1007.39
2018-11-25T06:39:59.544Z,1007.43
2018-11-25T06:40:59.557Z,1007.44
2018-11-25T06:41:59.572Z,1007.46
2018-11-25T06:42:59.588Z,1007.46
2018-11-25T06:43:59.603Z,1007.46
2018-11-25T06:44:59.617Z,1007.49
2018-11-25T06:45:59.631Z,1007.52
2018-11-25T06:46:59.646Z,1007.51
2018-11-25T06:47:59.660Z,1007.53
2018-11-25T06:48:59.681Z,1007.54
2018-11-25T06:49:59.691Z,1007.48
2018-11-25T06:50:59.704Z,1007.48
2018-11-25T06:51:59.721Z,1007.47
2018-11-25T06:52:59.735Z,1007.48
2018-11-25T06:53:59.752Z,1007.53
2018-11-25T06:54:59.765Z,1007.5
2018-11-25T06:55:59.781Z,1007.52
2018-11-25T06:56:59.797Z,1007.51
2018-11-25T06:57:59.811Z,1007.54
2018-11-25T06:58:59.825Z,1007.58
2018-11-25T06:59:59.840Z,1007.55
2018-11-25T07:00:59.858Z,1007.55
2018-11-25T07:01:59.875Z,1007.55
2018-11-25T07:02:59.885Z,1007.51
2018-11-25T07:03:59.900Z,1007.49
2018-11-25T07:04:59.915Z,1007.44
2018-11-25T07:05:59.930Z,1007.45
2018-11-25T07:06:59.952Z,1007.48
2018-11-25T07:07:59.962Z,1007.43
2018-11-25T07:08:59.973Z,1007.42
2018-11-25T07:11:00.006Z,1007.4
2018-11-25T07:12:00.023Z,1007.51
2018-11-25T07:13:00.039Z,1007.51
2018-11-25T07:14:00.049Z,1007.49
2018-11-25T07:15:00.076Z,1007.53
2018-11-25T07:16:00.082Z,1007.54
2018-11-25T07:17:00.094Z,1007.51
2018-11-25T07:18:00.109Z,1007.51
2018-11-25T07:19:00.124Z,1007.51
2018-11-25T07:20:00.139Z,1007.54
2018-11-25T07:21:00.154Z,1007.54
2018-11-25T07:22:00.169Z,1007.55
2018-11-25T07:23:00.182Z,1007.55
2018-11-25T07:24:00.222Z,1007.58
2018-11-25T07:25:00.214Z,1007.61
2018-11-25T07:27:00.244Z,1007.65
2018-11-25T07:28:17.550Z,1007.65
2018-11-25T07:29:00.273Z,1007.65
2018-11-25T07:30:00.975Z,1007.7
2018-11-25T07:31:00.303Z,1007.72
2018-11-25T07:32:00.317Z,1007.68
2018-11-25T07:33:00.334Z,1007.72
2018-11-25T07:34:00.350Z,1007.66
2018-11-25T07:35:00.363Z,1007.72
2018-11-25T07:36:00.378Z,1007.7
2018-11-25T07:37:00.393Z,1007.75
2018-11-25T07:38:00.408Z,1007.76
2018-11-25T07:39:00.423Z,1007.72
2018-11-25T07:40:00.437Z,1007.77
2018-11-25T07:41:00.452Z,1007.76
2018-11-25T07:43:00.482Z,1007.8
2018-11-25T07:44:00.498Z,1007.77
2018-11-25T07:45:00.512Z,1007.73
2018-11-25T07:46:00.534Z,1007.76
2018-11-25T07:47:00.542Z,1007.8
2018-11-25T07:48:00.559Z,1007.81
2018-11-25T07:49:00.574Z,1007.8
2018-11-25T07:50:00.587Z,1007.76
2018-11-25T07:51:00.603Z,1007.77
2018-11-25T07:52:00.618Z,1007.81
2018-11-25T07:53:00.632Z,1007.84
2018-11-25T07:54:00.648Z,1007.85
2018-11-25T07:55:00.664Z,1007.84
2018-11-25T07:56:00.681Z,1007.89
2018-11-25T07:57:00.695Z,1007.84
2018-11-25T07:59:00.722Z,1007.81
2018-11-25T08:00:00.738Z,1007.86
2018-11-25T08:01:00.753Z,1007.85
2018-11-25T08:02:00.768Z,1007.81
2018-11-25T08:03:00.785Z,1007.79
2018-11-25T08:04:00.799Z,1007.77
2018-11-25T08:05:00.814Z,1007.8
2018-11-25T08:06:00.829Z,1007.78
2018-11-25T08:07:00.847Z,1007.77
2018-11-25T08:08:00.859Z,1007.75
2018-11-25T08:09:00.875Z,1007.82
2018-11-25T08:10:00.890Z,1007.8
2018-11-25T08:11:00.905Z,1007.8
2018-11-25T08:12:00.921Z,1007.81
2018-11-25T08:14:00.953Z,1007.84
2018-11-25T08:15:00.966Z,1007.84
2018-11-25T08:16:00.982Z,1007.84
2018-11-25T08:17:00.997Z,1007.86
2018-11-25T08:18:01.013Z,1007.83
2018-11-25T08:19:01.028Z,1007.81
2018-11-25T08:20:01.045Z,1007.84
2018-11-25T08:21:01.058Z,1007.82
2018-11-25T08:22:01.071Z,1007.82
2018-11-25T08:23:01.088Z,1007.81
2018-11-25T08:24:01.104Z,1007.81
2018-11-25T08:25:01.119Z,1007.83
2018-11-25T08:26:01.134Z,1007.81
2018-11-25T08:27:01.148Z,1007.83
2018-11-25T08:28:01.165Z,1007.85
2018-11-25T08:29:01.180Z,1007.84
2018-11-25T08:30:01.195Z,1007.86
2018-11-25T08:31:01.210Z,1007.85
2018-11-25T08:32:01.226Z,1007.83
2018-11-25T08:33:01.240Z,1007.82
2018-11-25T08:34:01.256Z,1007.8
2018-11-25T08:35:01.272Z,1007.87
2018-11-25T08:36:01.287Z,1007.86
2018-11-25T08:37:01.302Z,1007.85
2018-11-25T08:38:01.319Z,1007.82
2018-11-25T08:39:01.333Z,1007.81
2018-11-25T08:40:01.351Z,1007.81
2018-11-25T08:41:01.364Z,1007.8
2018-11-25T08:42:01.379Z,1007.82
2018-11-25T08:43:01.394Z,1007.82
2018-11-25T08:44:01.409Z,1007.82
2018-11-25T08:46:01.443Z,1007.82
2018-11-25T08:47:01.456Z,1007.81
2018-11-25T08:48:01.470Z,1007.82
2018-11-25T08:49:01.486Z,1007.81
2018-11-25T08:50:01.502Z,1007.84
2018-11-25T08:51:01.521Z,1007.81
2018-11-25T08:52:01.535Z,1007.83
2018-11-25T08:53:01.549Z,1007.84
2018-11-25T08:54:01.564Z,1007.84
2018-11-25T08:55:01.579Z,1007.85
2018-11-25T08:56:01.593Z,1007.86
2018-11-25T08:57:01.610Z,1007.89
2018-11-25T08:58:01.627Z,1007.89
2018-11-25T08:59:01.640Z,1007.9
2018-11-25T09:00:01.656Z,1007.89
2018-11-25T09:02:01.688Z,1007.87
2018-11-25T09:03:01.702Z,1007.82
2018-11-25T09:04:01.718Z,1007.88
2018-11-25T09:05:01.834Z,1007.87
2018-11-25T09:06:01.751Z,1007.83
2018-11-25T09:07:01.765Z,1007.8
2018-11-25T09:08:01.791Z,1007.83
2018-11-25T09:09:01.795Z,1007.83
2018-11-25T09:10:01.810Z,1007.78
2018-11-25T09:11:01.827Z,1007.8
2018-11-25T09:12:01.841Z,1007.8
2018-11-25T09:13:01.859Z,1007.84
2018-11-25T09:14:01.874Z,1007.81
2018-11-25T09:15:01.889Z,1007.8
2018-11-25T09:16:01.905Z,1007.78
2018-11-25T09:18:01.936Z,1007.78
2018-11-25T09:19:01.952Z,1007.77
2018-11-25T09:20:01.968Z,1007.79
2018-11-25T09:21:01.983Z,1007.76
2018-11-25T09:22:01.999Z,1007.75
2018-11-25T09:23:02.013Z,1007.8
2018-11-25T09:24:02.030Z,1007.8
2018-11-25T09:25:02.045Z,1007.81
2018-11-25T09:26:02.161Z,1007.79
2018-11-25T09:27:02.077Z,1007.79
2018-11-25T09:28:02.106Z,1007.76
2018-11-25T09:29:02.108Z,1007.76
2018-11-25T09:30:02.124Z,1007.75
2018-11-25T09:31:02.141Z,1007.78
2018-11-25T09:32:02.155Z,1007.77
2018-11-25T09:34:02.192Z,1007.81
2018-11-25T09:35:02.203Z,1007.83
2018-11-25T09:36:02.217Z,1007.84
2018-11-25T09:37:02.233Z,1007.86
2018-11-25T09:38:02.249Z,1007.87
2018-11-25T09:39:02.267Z,1007.86
2018-11-25T09:40:02.281Z,1007.87
2018-11-25T09:41:02.301Z,1007.86
2018-11-25T09:42:02.313Z,1007.83
2018-11-25T09:43:02.328Z,1007.89
2018-11-25T09:44:02.343Z,1007.9
2018-11-25T09:45:02.363Z,1007.9
2018-11-25T09:46:02.376Z,1007.87
2018-11-25T09:47:02.391Z,1007.88
2018-11-25T09:49:02.427Z,1007.87
2018-11-25T09:50:02.440Z,1007.84
2018-11-25T09:51:02.457Z,1007.9
2018-11-25T09:52:02.473Z,1007.88
2018-11-25T09:53:02.489Z,1007.87
2018-11-25T09:54:02.503Z,1007.85
2018-11-25T09:55:02.519Z,1007.85
2018-11-25T09:56:02.536Z,1007.88
2018-11-25T09:57:02.550Z,1007.85
2018-11-25T09:58:02.568Z,1007.86
2018-11-25T09:59:02.597Z,1007.88
2018-11-25T10:00:02.603Z,1007.88
2018-11-25T10:01:02.615Z,1007.81
2018-11-25T10:02:02.632Z,1007.85
2018-11-25T10:03:02.653Z,1007.83
2018-11-25T10:04:02.664Z,1007.83
2018-11-25T10:05:02.683Z,1007.87
2018-11-25T10:06:02.695Z,1007.83
2018-11-25T10:07:02.711Z,1007.78
2018-11-25T10:08:02.727Z,1007.8
2018-11-25T10:09:02.746Z,1007.8
2018-11-25T10:10:02.763Z,1007.81
2018-11-25T10:11:02.778Z,1007.83
2018-11-25T10:12:02.792Z,1007.78
2018-11-25T10:13:02.808Z,1007.83
2018-11-25T10:14:02.824Z,1007.81
2018-11-25T10:15:02.839Z,1007.82
2018-11-25T10:16:02.855Z,1007.84
2018-11-25T10:17:02.874Z,1007.87
2018-11-25T10:18:02.906Z,1007.85
2018-11-25T10:19:02.903Z,1007.88
2018-11-25T10:21:02.937Z,1007.92
2018-11-25T10:22:02.952Z,1007.91
2018-11-25T10:23:02.971Z,1007.92
2018-11-25T10:24:02.983Z,1007.87
2018-11-25T10:25:03.002Z,1007.85
2018-11-25T10:26:03.015Z,1007.83
2018-11-25T10:27:03.031Z,1007.84
2018-11-25T10:28:03.047Z,1007.88
2018-11-25T10:29:03.064Z,1007.86
2018-11-25T10:30:03.079Z,1007.86
2018-11-25T10:31:03.096Z,1007.81
2018-11-25T10:32:03.112Z,1007.82
2018-11-25T10:33:03.128Z,1007.86
2018-11-25T10:34:03.145Z,1007.82
2018-11-25T10:35:03.160Z,1007.82
2018-11-25T10:37:03.192Z,1007.78
2018-11-25T10:38:03.210Z,1007.79
2018-11-25T10:39:03.223Z,1007.81
2018-11-25T10:40:03.241Z,1007.76
2018-11-25T10:41:03.254Z,1007.72
2018-11-25T10:42:03.273Z,1007.69
2018-11-25T10:43:03.288Z,1007.71
2018-11-25T10:44:03.304Z,1007.66
2018-11-25T10:45:03.320Z,1007.69
2018-11-25T10:46:03.336Z,1007.71
2018-11-25T10:47:03.353Z,1007.68
2018-11-25T10:48:03.368Z,1007.7
2018-11-25T10:49:03.383Z,1007.68
2018-11-25T10:50:03.403Z,1007.7
2018-11-25T10:51:03.418Z,1007.7
2018-11-25T10:53:03.449Z,1007.62
2018-11-25T10:54:03.465Z,1007.61
2018-11-25T10:55:03.481Z,1007.63
2018-11-25T10:56:03.497Z,1007.6
2018-11-25T10:57:03.518Z,1007.66
2018-11-25T10:58:03.529Z,1007.59
2018-11-25T10:59:03.546Z,1007.64
2018-11-25T11:00:03.562Z,1007.66
2018-11-25T11:01:03.578Z,1007.69
2018-11-25T11:02:03.594Z,1007.73
2018-11-25T11:03:03.609Z,1007.68
2018-11-25T11:04:03.625Z,1007.7
2018-11-25T11:05:03.643Z,1007.67
2018-11-25T11:06:03.661Z,1007.69
2018-11-25T11:07:03.676Z,1007.66
2018-11-25T11:09:03.707Z,1007.65
2018-11-25T11:10:03.724Z,1007.65
2018-11-25T11:11:03.739Z,1007.67
2018-11-25T11:12:03.756Z,1007.66
2018-11-25T11:13:03.773Z,1007.69
2018-11-25T11:14:03.788Z,1007.7
2018-11-25T11:15:03.803Z,1007.69
2018-11-25T11:16:03.820Z,1007.66
2018-11-25T11:17:03.837Z,1007.68
2018-11-25T11:18:03.852Z,1007.67
2018-11-25T11:19:03.870Z,1007.66
2018-11-25T11:20:03.886Z,1007.61
2018-11-25T11:21:03.903Z,1007.64
2018-11-25T11:22:03.919Z,1007.67
2018-11-25T11:24:03.951Z,1007.64
2018-11-25T11:25:03.968Z,1007.67
2018-11-25T11:26:06.938Z,1007.64
2018-11-25T11:27:04.002Z,1007.66
2018-11-25T11:28:04.018Z,1007.67
2018-11-25T11:29:04.033Z,1007.64
2018-11-25T11:30:04.050Z,1007.65
2018-11-25T11:31:04.065Z,1007.67
2018-11-25T11:32:04.082Z,1007.68
2018-11-25T11:33:04.100Z,1007.65
2018-11-25T11:34:04.117Z,1007.68
2018-11-25T11:35:04.131Z,1007.69
2018-11-25T11:36:04.147Z,1007.68
2018-11-25T11:37:04.164Z,1007.69
2018-11-25T11:38:04.181Z,1007.71
2018-11-25T11:39:04.197Z,1007.67
2018-11-25T11:40:04.214Z,1007.7
2018-11-25T11:41:04.230Z,1007.7
2018-11-25T11:42:04.247Z,1007.73
2018-11-25T11:43:04.262Z,1007.74
2018-11-25T11:44:04.281Z,1007.71
2018-11-25T11:45:04.295Z,1007.72
2018-11-25T11:46:04.312Z,1007.72
2018-11-25T11:47:04.328Z,1007.72
2018-11-25T11:48:04.344Z,1007.7
2018-11-25T11:49:04.361Z,1007.72
2018-11-25T11:50:04.378Z,1007.7
2018-11-25T11:51:04.393Z,1007.66
2018-11-25T11:52:04.411Z,1007.69
2018-11-25T11:53:04.426Z,1007.64
2018-11-25T11:54:04.442Z,1007.68
2018-11-25T11:56:04.475Z,1007.68
2018-11-25T11:57:04.492Z,1007.68
2018-11-25T11:58:04.507Z,1007.7
2018-11-25T11:59:04.527Z,1007.66
2018-11-25T12:00:04.540Z,1007.65
2018-11-25T12:01:04.558Z,1007.69
2018-11-25T12:02:04.574Z,1007.65
2018-11-25T12:03:04.591Z,1007.67
2018-11-25T12:04:04.607Z,1007.59
2018-11-25T12:05:04.621Z,1007.63
2018-11-25T12:06:04.638Z,1007.64
2018-11-25T12:07:04.655Z,1007.64
2018-11-25T12:08:04.672Z,1007.63
2018-11-25T12:09:04.687Z,1007.62
2018-11-25T12:10:04.703Z,1007.62
2018-11-25T12:12:04.737Z,1007.58
2018-11-25T12:13:04.754Z,1007.61
2018-11-25T12:14:04.770Z,1007.59
2018-11-25T12:15:04.786Z,1007.58
2018-11-25T12:16:04.802Z,1007.57
2018-11-25T12:17:04.819Z,1007.58
2018-11-25T12:18:04.836Z,1007.59
2018-11-25T12:19:04.852Z,1007.56
2018-11-25T12:20:04.868Z,1007.55
2018-11-25T12:21:04.884Z,1007.57
2018-11-25T12:22:04.901Z,1007.6
2018-11-25T12:23:04.919Z,1007.56
2018-11-25T12:24:04.933Z,1007.57
2018-11-25T12:25:04.950Z,1007.55
2018-11-25T12:26:04.965Z,1007.52
2018-11-25T12:28:05.002Z,1007.52
2018-11-25T12:29:05.018Z,1007.52
2018-11-25T12:30:05.032Z,1007.55
2018-11-25T12:31:05.049Z,1007.52
2018-11-25T12:32:05.065Z,1007.53
2018-11-25T12:33:05.082Z,1007.52
2018-11-25T12:34:05.097Z,1007.55
2018-11-25T12:35:05.117Z,1007.54
2018-11-25T12:36:05.129Z,1007.46
2018-11-25T12:37:05.147Z,1007.53
2018-11-25T12:38:05.162Z,1007.48
2018-11-25T12:39:05.183Z,1007.56
2018-11-25T12:40:05.195Z,1007.54
2018-11-25T12:41:05.212Z,1007.57
2018-11-25T12:42:05.232Z,1007.55
2018-11-25T12:44:05.262Z,1007.59
2018-11-25T12:45:05.279Z,1007.57
2018-11-25T12:46:05.297Z,1007.55
2018-11-25T12:47:05.311Z,1007.54
2018-11-25T12:48:05.327Z,1007.55
2018-11-25T12:49:05.343Z,1007.58